createdAt,value
2022-10-11T00:00:10.793Z,12.41
2022-10-11T00:05:06.357Z,12.46
2022-10-11T00:09:59.639Z,12.57
2022-10-11T00:14:52.967Z,12.49
2022-10-11T00:19:46.471Z,12.50
2022-10-11T00:24:41.179Z,12.53
2022-10-11T00:29:34.553Z,12.56
2022-10-11T00:34:27.913Z,12.58
2022-10-11T00:39:21.295Z,12.61
2022-10-11T00:44:19.848Z,12.64
2022-10-11T00:49:22.777Z,12.59
2022-10-11T00:54:21.705Z,12.41
2022-10-11T00:59:24.425Z,12.44
2022-10-11T01:04:17.846Z,12.51
2022-10-11T01:09:12.080Z,12.57
2022-10-11T01:14:44.128Z,12.56
2022-10-11T01:19:56.112Z,12.53
2022-10-11T01:25:19.351Z,12.49
2022-10-11T01:30:31.246Z,12.50
2022-10-11T01:35:33.659Z,12.51
2022-10-11T01:40:35.729Z,12.46
2022-10-11T01:45:33.975Z,12.53
2022-10-11T01:50:41.764Z,12.61
2022-10-11T01:55:48.387Z,12.58
2022-10-11T02:00:53.499Z,12.62
2022-10-11T02:05:52.916Z,12.56
2022-10-11T02:10:53.866Z,12.62
2022-10-11T02:15:51.647Z,12.65
2022-10-11T02:20:48.019Z,12.69
2022-10-11T02:25:45.502Z,12.73
2022-10-11T02:30:43.037Z,12.74
2022-10-11T02:35:45.441Z,12.64
2022-10-11T02:40:48.761Z,12.54
2022-10-11T02:45:49.403Z,12.55
2022-10-11T02:50:45.353Z,12.56
2022-10-11T02:55:39.153Z,12.58
2022-10-11T03:00:33.117Z,12.63
2022-10-11T03:05:26.441Z,12.64
2022-10-11T03:10:21.260Z,12.53
2022-10-11T03:15:14.554Z,12.50
2022-10-11T03:20:09.615Z,12.56
2022-10-11T03:25:04.657Z,12.63
2022-10-11T03:29:59.585Z,12.69
2022-10-11T03:34:52.905Z,12.74
2022-10-11T03:39:46.635Z,12.79
2022-10-11T03:44:41.687Z,12.85
2022-10-11T03:49:41.318Z,12.85
2022-10-11T03:54:36.777Z,12.82
2022-10-11T03:59:30.174Z,12.78
2022-10-11T04:04:23.480Z,12.68
2022-10-11T04:09:18.205Z,12.70
2022-10-11T04:14:11.677Z,12.69
2022-10-11T04:19:05.071Z,12.63
2022-10-11T04:23:58.402Z,12.63
2022-10-11T04:28:53.087Z,12.66
2022-10-11T04:33:46.335Z,12.59
2022-10-11T04:38:39.566Z,12.64
2022-10-11T04:43:32.837Z,12.58
2022-10-11T04:48:27.567Z,12.62
2022-10-11T04:53:20.904Z,12.67
2022-10-11T04:58:14.163Z,12.66
2022-10-11T05:03:10.402Z,12.64
2022-10-11T05:08:05.263Z,12.64
2022-10-11T05:12:58.543Z,12.64
2022-10-11T05:17:51.799Z,12.66
2022-10-11T05:22:45.115Z,12.65
2022-10-11T05:27:39.799Z,12.51
2022-10-11T05:32:33.126Z,12.53
2022-10-11T05:37:37.055Z,12.57
2022-10-11T05:42:30.317Z,12.56
2022-10-11T05:47:25.202Z,12.59
2022-10-11T05:52:20.457Z,12.56
2022-10-11T05:57:13.750Z,12.59
2022-10-11T06:02:08.330Z,12.66
2022-10-11T06:07:03.440Z,12.65
2022-10-11T06:11:56.825Z,12.66
2022-10-11T06:16:50.113Z,12.70
2022-10-11T06:21:43.430Z,12.78
2022-10-11T06:26:38.067Z,12.72
2022-10-11T06:31:31.391Z,12.74
2022-10-11T06:36:24.748Z,12.70
2022-10-11T06:41:21.920Z,12.82
2022-10-11T06:46:17.774Z,12.97
2022-10-11T06:51:11.113Z,13.09
2022-10-11T06:56:05.473Z,13.23
2022-10-11T07:01:02.254Z,13.36
2022-10-11T07:06:02.609Z,13.41
2022-10-11T07:11:02.009Z,13.49
2022-10-11T07:15:55.288Z,13.52
2022-10-11T07:20:48.738Z,13.67
2022-10-11T07:25:43.780Z,13.82
2022-10-11T07:30:40.274Z,13.87
2022-10-11T07:35:36.703Z,13.90
2022-10-11T07:40:30.039Z,13.90
2022-10-11T07:45:24.960Z,13.95
2022-10-11T07:50:18.360Z,14.03
2022-10-11T07:55:11.593Z,14.13
2022-10-11T08:00:06.076Z,14.47
2022-10-11T08:05:00.923Z,14.57
2022-10-11T08:09:54.246Z,14.53
2022-10-11T08:14:47.541Z,14.52
2022-10-11T08:19:40.866Z,14.64
2022-10-11T08:24:41.028Z,14.64
2022-10-11T08:29:34.683Z,14.87
2022-10-11T08:34:35.383Z,14.98
2022-10-11T08:39:30.880Z,15.22
2022-10-11T08:45:09.376Z,15.32
2022-10-11T08:50:00.086Z,15.28
2022-10-11T08:55:04.467Z,15.44
2022-10-11T09:00:04.485Z,15.33
2022-10-11T09:05:01.147Z,15.37
2022-10-11T09:10:36.895Z,15.20
2022-10-11T09:15:43.336Z,15.17
2022-10-11T09:20:52.907Z,15.46
2022-10-11T09:25:56.100Z,15.77
2022-10-11T09:30:55.816Z,15.85
2022-10-11T09:35:52.671Z,15.66
2022-10-11T09:41:09.025Z,15.54
2022-10-11T09:46:03.986Z,15.80
2022-10-11T09:51:07.476Z,15.93
2022-10-11T09:56:05.843Z,16.01
2022-10-11T10:01:07.854Z,16.16
2022-10-11T10:06:09.560Z,16.32
2022-10-11T10:11:06.515Z,16.38
2022-10-11T10:16:00.455Z,16.40
2022-10-11T10:20:57.803Z,16.40
2022-10-11T10:25:53.062Z,16.48
2022-10-11T10:30:55.227Z,16.67
2022-10-11T10:35:57.618Z,16.76
2022-10-11T10:40:54.332Z,16.79
2022-10-11T10:46:10.906Z,16.71
2022-10-11T10:51:22.878Z,16.77
2022-10-11T10:56:24.948Z,16.83
2022-10-11T11:01:24.916Z,16.90
2022-10-11T11:06:32.770Z,16.94
2022-10-11T11:11:50.626Z,16.96
2022-10-11T11:16:55.160Z,16.99
2022-10-11T11:22:02.473Z,16.99
2022-10-11T11:27:11.234Z,17.05
2022-10-11T11:32:23.209Z,17.14
2022-10-11T11:37:29.497Z,17.21
2022-10-11T11:42:35.388Z,17.17
2022-10-11T11:47:35.455Z,17.12
2022-10-11T11:52:37.743Z,17.40
2022-10-11T11:57:53.025Z,17.61
2022-10-11T12:02:53.418Z,17.70
2022-10-11T12:08:05.441Z,17.87
2022-10-11T12:13:19.367Z,17.86
2022-10-11T12:18:19.938Z,17.92
2022-10-11T12:23:44.548Z,17.91
2022-10-11T12:29:28.485Z,17.99
2022-10-11T12:34:36.892Z,18.19
2022-10-11T12:39:52.738Z,18.21
2022-10-11T12:45:35.164Z,18.44
2022-10-11T12:50:40.955Z,18.26
2022-10-11T12:55:57.568Z,18.02
2022-10-11T13:01:35.923Z,17.79
2022-10-11T13:06:33.831Z,17.76
2022-10-11T13:11:33.737Z,17.80
2022-10-11T13:16:30.476Z,17.91
2022-10-11T13:21:32.890Z,17.90
2022-10-11T13:26:29.104Z,18.00
2022-10-11T13:31:24.222Z,17.99
2022-10-11T13:36:19.561Z,17.88
2022-10-11T13:41:13.018Z,17.91
2022-10-11T13:46:16.471Z,17.99
2022-10-11T13:51:16.835Z,17.86
2022-10-11T13:56:12.687Z,17.69
2022-10-11T14:01:18.830Z,17.75
2022-10-11T14:06:18.654Z,17.73
2022-10-11T14:11:16.221Z,17.69
2022-10-11T14:16:13.641Z,17.65
2022-10-11T14:21:34.743Z,17.62
2022-10-11T14:26:40.100Z,17.62
2022-10-11T14:31:41.692Z,17.68
2022-10-11T14:36:36.117Z,17.45
2022-10-11T14:41:34.327Z,17.42
2022-10-11T14:46:28.530Z,17.47
2022-10-11T14:51:29.252Z,17.48
2022-10-11T14:56:24.696Z,17.47
2022-10-11T15:01:21.266Z,17.52
2022-10-11T15:06:27.213Z,17.43
2022-10-11T15:11:27.490Z,17.51
2022-10-11T15:16:27.277Z,17.34
2022-10-11T15:21:24.624Z,17.37
2022-10-11T15:26:21.352Z,17.21
2022-10-11T15:31:15.306Z,17.20
2022-10-11T15:36:13.595Z,17.19
2022-10-11T15:41:09.098Z,17.14
2022-10-11T15:46:04.416Z,17.10
2022-10-11T15:50:58.707Z,17.02
2022-10-11T15:55:55.001Z,17.00
2022-10-11T16:00:54.089Z,16.92
2022-10-11T16:05:47.327Z,16.76
2022-10-11T16:10:41.218Z,16.68
2022-10-11T16:15:35.553Z,16.60
2022-10-11T16:20:30.287Z,16.59
2022-10-11T16:25:25.008Z,16.49
2022-10-11T16:30:20.926Z,16.41
2022-10-11T16:35:16.267Z,16.29
2022-10-11T16:40:15.829Z,16.20
2022-10-11T16:45:11.543Z,16.14
2022-10-11T16:50:06.829Z,16.01
2022-10-11T16:55:00.236Z,15.91
2022-10-11T16:59:54.910Z,15.85
2022-10-11T17:04:50.597Z,15.80
2022-10-11T17:09:45.548Z,15.74
2022-10-11T17:14:39.497Z,15.67
2022-10-11T17:19:34.504Z,15.54
2022-10-11T17:24:28.267Z,15.64
2022-10-11T17:29:24.053Z,15.59
2022-10-11T19:08:28.323Z,14.63
2022-10-11T21:27:55.222Z,13.09
2022-10-11T21:48:20.195Z,13.13
2022-10-11T21:53:13.730Z,12.85
2022-10-11T21:58:08.010Z,12.75
2022-10-11T23:41:21.334Z,13.46
